Terminal Aerodrome Forecast
Issued by NWS Charleston, WV

Home | Current Version | Previous Version | Text Only | Print | Product List | Glossary On
Versions: 1 2 3 4 5 6 7 8 9 10 11 12 13 14 15 16 17 18 19 20 21 22 23 24 25 26 27 28 29
000
FTUS41 KRLX 070538
TAFCRW
TAF
KCRW 070538Z 0706/0806 28007KT P6SM SCT007 OVC015
     FM071300 28004KT P6SM OVC025
     FM071600 VRB03KT P6SM OVC050
     FM072000 00000KT P6SM SCT120
     FM080500 00000KT P6SM BKN100=

USA.gov is the U.S. government's official web portal to all federal, state and local government web resources and services.